Time;durP1;ratioP1;P1;durP2;ratioP2;P2;SDS_P1;SDS_P2;PMS_P1;PMS_P2;Temp;Humidity;BMP_temperature;BMP_pressure;BME280_temperature;BME280_humidity;BME280_pressure;Samples;Min_cycle;Max_cycle;Signal;HPM_P1;HPM_P2
2024/01/27 00:00:18;;;;;;;12.70;6.25;;;6.50;99.90;;;;;;5074933;28;20943;-83
2024/01/27 00:02:50;;;;;;;16.00;6.43;;;5.30;99.90;;;;;;5077587;28;20040;-81
2024/01/27 00:05:19;;;;;;;10.70;5.70;;;6.40;99.90;;;;;;5088592;28;20047;-80
2024/01/27 00:07:47;;;;;;;11.40;5.72;;;6.50;99.90;;;;;;5072046;28;20495;-79
2024/01/27 00:10:21;;;;;;;8.00;4.68;;;6.60;99.90;;;;;;5075795;28;20102;-81
2024/01/27 00:12:52;;;;;;;9.60;5.63;;;6.70;99.90;;;;;;5092322;28;20071;-79
2024/01/27 00:15:21;;;;;;;13.02;5.40;;;6.80;99.90;;;;;;5091755;28;20051;-79
2024/01/27 00:17:52;;;;;;;6.72;3.75;;;6.70;99.90;;;;;;5079239;28;20049;-82
2024/01/27 00:20:24;;;;;;;7.68;3.72;;;6.90;99.90;;;;;;5071955;28;20059;-79
2024/01/27 00:23:02;;;;;;;5.40;3.00;;;6.90;99.90;;;;;;5079121;28;20064;-79
2024/01/27 00:25:41;;;;;;;6.93;2.47;;;7.00;99.90;;;;;;5079703;28;20053;-80
2024/01/27 00:28:15;;;;;;;6.50;2.42;;;7.00;99.90;;;;;;5078279;28;20037;-81
2024/01/27 00:30:50;;;;;;;6.25;2.80;;;7.00;99.90;;;;;;5070990;28;20174;-75
2024/01/27 00:33:23;;;;;;;3.75;2.33;;;7.00;99.90;;;;;;5087532;28;20068;-79
2024/01/27 00:35:53;;;;;;;6.65;2.17;;;7.10;99.90;;;;;;5077262;28;20037;-76
2024/01/27 00:38:22;;;;;;;4.18;2.13;;;7.20;99.90;;;;;;5071461;28;20341;-79
2024/01/27 00:40:53;;;;;;;6.80;1.80;;;7.20;99.90;;;;;;5039552;28;20090;-80
2024/01/27 00:43:27;;;;;;;4.13;1.05;;;7.30;99.90;;;;;;5065135;28;20072;-78
2024/01/27 00:45:59;;;;;;;3.60;1.25;;;7.40;99.90;;;;;;5066950;28;20196;-77
2024/01/27 00:48:38;;;;;;;3.95;1.17;;;7.30;99.90;;;;;;5021949;28;20103;-75
2024/01/27 00:51:08;;;;;;;2.47;1.15;;;7.30;99.90;;;;;;5067700;28;20471;-78
2024/01/27 00:53:58;;;;;;;3.25;0.98;;;7.30;99.90;;;;;;5020267;28;20702;-80
2024/01/27 00:56:34;;;;;;;3.30;0.60;;;7.30;99.90;;;;;;5038583;28;20049;-78
2024/01/27 00:59:06;;;;;;;3.25;0.60;;;7.40;99.90;;;;;;5023593;28;20095;-79
2024/01/27 01:01:43;;;;;;;1.40;0.60;;;7.30;99.90;;;;;;4998592;28;20058;-77
2024/01/27 01:04:15;;;;;;;4.47;1.27;;;7.30;99.90;;;;;;4976762;28;20055;-77
2024/01/27 01:06:47;;;;;;;2.90;0.82;;;7.30;99.90;;;;;;4972006;28;20049;-77
2024/01/27 01:09:15;;;;;;;2.75;0.40;;;7.20;99.90;;;;;;4958874;28;20066;-78
2024/01/27 01:11:50;;;;;;;1.05;0.45;;;7.20;99.90;;;;;;4985598;28;20416;-77
2024/01/27 01:14:41;;;;;;;2.92;0.70;;;7.30;99.90;;;;;;5031358;28;20049;-77
2024/01/27 01:17:17;;;;;;;0.93;0.30;;;7.20;99.90;;;;;;5034707;28;20104;-77
2024/01/27 01:19:46;;;;;;;1.85;0.60;;;7.20;99.90;;;;;;5022841;28;20042;-79
2024/01/27 01:22:17;;;;;;;2.55;0.40;;;7.20;99.90;;;;;;5017107;28;20566;-77
2024/01/27 01:24:47;;;;;;;1.58;0.52;;;7.10;99.90;;;;;;5016636;28;20045;-79
2024/01/27 01:27:18;;;;;;;2.05;0.52;;;6.60;99.90;;;;;;5018396;28;20049;-77
2024/01/27 01:29:49;;;;;;;3.42;3.17;;;7.00;99.90;;;;;;5032870;28;20045;-76
2024/01/27 01:32:19;;;;;;;1.65;0.30;;;7.20;99.90;;;;;;5030153;28;20040;-77
2024/01/27 01:34:50;;;;;;;2.08;0.43;;;7.10;99.90;;;;;;5073026;28;20045;-76
2024/01/27 01:37:19;;;;;;;2.50;0.50;;;7.00;99.90;;;;;;5074392;28;20048;-79
2024/01/27 01:39:50;;;;;;;5.25;0.82;;;7.10;99.90;;;;;;5079575;28;20044;-79
2024/01/27 01:42:24;;;;;;;3.53;0.45;;;7.10;99.90;;;;;;5082964;28;20143;-78
2024/01/27 01:44:57;;;;;;;1.30;0.40;;;7.10;99.90;;;;;;5007116;28;20058;-79
2024/01/27 01:47:30;;;;;;;2.08;0.50;;;7.00;99.90;;;;;;5041120;28;20042;-80
2024/01/27 01:50:00;;;;;;;1.15;0.32;;;7.10;99.90;;;;;;5055433;28;20030;-80
2024/01/27 01:52:31;;;;;;;1.52;0.65;;;7.00;99.90;;;;;;5036561;28;20052;-78
2024/01/27 01:55:00;;;;;;;2.13;0.60;;;7.00;99.90;;;;;;5042642;28;20057;-80
2024/01/27 01:57:33;;;;;;;0.90;0.45;;;7.00;99.90;;;;;;5023111;28;20045;-80
2024/01/27 02:00:04;;;;;;;2.58;0.70;;;5.70;99.90;;;;;;5041415;28;20046;-79
2024/01/27 02:02:39;;;;;;;1.90;0.50;;;6.90;99.90;;;;;;5041728;28;20038;-80
2024/01/27 02:05:09;;;;;;;1.23;0.20;;;6.90;99.90;;;;;;5041141;28;20053;-80
2024/01/27 02:07:40;;;;;;;1.67;0.83;;;6.80;99.90;;;;;;5036789;28;20050;-79
2024/01/27 02:10:14;;;;;;;3.17;0.38;;;6.80;99.90;;;;;;5039344;28;20048;-79
2024/01/27 02:12:44;;;;;;;2.03;0.40;;;6.90;99.90;;;;;;5020915;28;20056;-79
2024/01/27 02:15:14;;;;;;;3.03;0.20;;;6.90;99.90;;;;;;5042964;28;20053;-79
2024/01/27 02:17:43;;;;;;;3.20;0.20;;;6.90;99.90;;;;;;5084815;28;20064;-79
2024/01/27 02:20:12;;;;;;;1.02;0.20;;;6.70;99.90;;;;;;5076623;28;20037;-79
2024/01/27 02:22:40;;;;;;;2.55;0.20;;;6.60;99.90;;;;;;5081220;28;20045;-79
2024/01/27 02:25:11;;;;;;;1.23;0.20;;;6.70;99.90;;;;;;5080815;28;20068;-82
2024/01/27 02:27:45;;;;;;;1.23;0.47;;;6.70;99.90;;;;;;5097262;28;20048;-80
2024/01/27 02:30:16;;;;;;;1.42;0.20;;;6.80;99.90;;;;;;5081439;28;20408;-79
2024/01/27 02:32:45;;;;;;;1.88;0.20;;;6.80;99.90;;;;;;5092426;28;20104;-81
2024/01/27 02:35:14;;;;;;;1.90;0.40;;;6.60;99.90;;;;;;5112374;28;20526;-80
2024/01/27 02:37:43;;;;;;;1.50;0.25;;;6.60;99.90;;;;;;5093189;28;20075;-79
2024/01/27 02:40:15;;;;;;;0.90;0.20;;;6.60;99.90;;;;;;5094285;28;20044;-79
2024/01/27 02:42:44;;;;;;;1.67;0.20;;;6.60;99.90;;;;;;5082339;28;20059;-80
2024/01/27 02:45:18;;;;;;;1.60;0.30;;;6.60;99.90;;;;;;5075964;28;20136;-81
2024/01/27 02:47:49;;;;;;;3.25;0.95;;;6.60;99.90;;;;;;5082371;28;20048;-79
2024/01/27 02:50:20;;;;;;;1.15;0.13;;;6.60;99.90;;;;;;5077020;28;20057;-80
2024/01/27 02:52:49;;;;;;;0.93;0.17;;;6.80;99.90;;;;;;5096866;28;20093;-80
2024/01/27 02:55:19;;;;;;;2.00;0.20;;;6.90;99.90;;;;;;5082185;28;20044;-80
2024/01/27 02:57:48;;;;;;;1.10;0.10;;;5.20;99.90;;;;;;5118345;28;20107;-80
2024/01/27 03:00:17;;;;;;;3.10;0.20;;;6.40;99.90;;;;;;5085815;28;20041;-83
2024/01/27 03:02:46;;;;;;;1.25;0.10;;;6.40;99.90;;;;;;5092241;28;20056;-80
2024/01/27 03:05:15;;;;;;;2.15;0.10;;;6.30;99.90;;;;;;5086498;28;20040;-78
2024/01/27 03:07:43;;;;;;;0.40;0.10;;;6.20;99.90;;;;;;5080338;28;20121;-81
2024/01/27 03:10:13;;;;;;;2.78;0.15;;;6.20;99.90;;;;;;5089503;28;20049;-78
2024/01/27 03:12:43;;;;;;;1.77;0.20;;;6.20;99.90;;;;;;5080783;28;20040;-81
2024/01/27 03:15:11;;;;;;;0.98;0.20;;;6.10;99.90;;;;;;5080837;28;20041;-81
2024/01/27 03:17:40;;;;;;;0.50;0.10;;;6.00;99.90;;;;;;5079236;28;20504;-80
2024/01/27 03:20:09;;;;;;;3.30;0.50;;;6.00;99.90;;;;;;5084134;28;20057;-78
2024/01/27 03:22:40;;;;;;;3.45;0.90;;;6.00;99.90;;;;;;5077100;28;20016;-81
2024/01/27 03:25:10;;;;;;;2.30;0.45;;;6.00;99.90;;;;;;5080136;28;20037;-83
2024/01/27 03:27:42;;;;;;;1.83;0.10;;;6.00;99.90;;;;;;5081133;28;20037;-81
2024/01/27 03:30:11;;;;;;;0.88;0.10;;;6.00;99.90;;;;;;5082225;28;20059;-81
2024/01/27 03:32:40;;;;;;;0.50;0.10;;;5.90;99.90;;;;;;5082292;28;20041;-80
2024/01/27 03:35:09;;;;;;;1.73;0.10;;;6.10;99.90;;;;;;5082160;28;20048;-80
2024/01/27 03:37:38;;;;;;;1.08;0.20;;;6.00;99.90;;;;;;5077858;28;20055;-81
2024/01/27 03:40:09;;;;;;;1.15;0.00;;;6.00;99.90;;;;;;5080035;28;20140;-81
2024/01/27 03:42:37;;;;;;;0.65;0.10;;;5.90;99.90;;;;;;5081662;28;20066;-80
2024/01/27 03:45:11;;;;;;;1.10;0.20;;;5.90;99.90;;;;;;5082208;28;20125;-79
2024/01/27 03:48:00;;;;;;;1.58;0.28;;;5.90;99.90;;;;;;5077420;28;20021;-80
2024/01/27 03:50:29;;;;;;;0.73;0.20;;;5.90;99.90;;;;;;5074383;28;20086;-81
2024/01/27 03:52:57;;;;;;;1.13;0.68;;;5.90;99.90;;;;;;5063264;28;20113;-82
2024/01/27 03:55:26;;;;;;;0.68;0.22;;;5.80;99.90;;;;;;5077130;28;20052;-79
2024/01/27 03:57:55;;;;;;;2.33;0.50;;;5.90;99.90;;;;;;5076339;28;20033;-77
2024/01/27 04:00:33;;;;;;;2.22;0.10;;;5.70;99.90;;;;;;5077095;28;20088;-80
2024/01/27 04:03:04;;;;;;;1.85;0.13;;;6.00;99.90;;;;;;5065026;28;20621;-76
2024/01/27 04:06:02;;;;;;;1.83;0.10;;;5.80;99.90;;;;;;5055352;28;20120;-77
2024/01/27 04:08:31;;;;;;;1.33;0.10;;;5.80;99.90;;;;;;5051623;28;20535;-77
2024/01/27 04:11:00;;;;;;;0.65;0.10;;;5.80;99.90;;;;;;5065067;28;20044;-78
2024/01/27 04:13:31;;;;;;;1.83;0.10;;;5.70;99.90;;;;;;5082266;28;20060;-78
2024/01/27 04:16:03;;;;;;;4.93;0.40;;;5.60;99.90;;;;;;5085337;28;20040;-78
2024/01/27 04:18:33;;;;;;;3.88;0.20;;;5.50;99.90;;;;;;5065724;28;20297;-77
2024/01/27 04:21:02;;;;;;;0.50;0.10;;;5.60;99.90;;;;;;5069974;28;20045;-77
2024/01/27 04:23:30;;;;;;;2.15;0.10;;;5.60;99.90;;;;;;5072080;28;20076;-76
2024/01/27 04:26:02;;;;;;;0.77;0.10;;;5.80;99.90;;;;;;5073348;28;20056;-77
2024/01/27 04:28:34;;;;;;;1.42;0.13;;;5.70;99.90;;;;;;5084066;28;20040;-77
2024/01/27 04:31:10;;;;;;;0.60;0.17;;;5.60;99.90;;;;;;5074082;28;20047;-77
2024/01/27 04:33:40;;;;;;;1.38;0.17;;;5.60;99.90;;;;;;5071834;28;20075;-77
2024/01/27 04:36:10;;;;;;;0.50;0.30;;;5.60;99.90;;;;;;5088523;28;20044;-77
2024/01/27 04:38:47;;;;;;;1.38;0.10;;;5.60;99.90;;;;;;5086377;28;20044;-77
2024/01/27 04:41:34;;;;;;;1.27;0.10;;;5.50;99.90;;;;;;5071825;28;20055;-77
2024/01/27 04:44:05;;;;;;;1.98;0.30;;;5.50;99.90;;;;;;5104763;28;20389;-78
2024/01/27 04:49:42;;;;;;;2.25;0.30;;;5.40;99.90;;;;;;5069913;28;20039;-77
2024/01/27 04:52:11;;;;;;;4.22;0.25;;;5.40;99.90;;;;;;5104067;28;20052;-79
2024/01/27 04:54:43;;;;;;;2.75;0.20;;;5.50;99.90;;;;;;5071150;28;20535;-77
2024/01/27 04:57:26;;;;;;;1.27;0.20;;;5.40;99.90;;;;;;5072430;28;20064;-77
2024/01/27 05:00:04;;;;;;;0.75;0.20;;;5.40;99.90;;;;;;5067945;28;20462;-76
2024/01/27 05:02:38;;;;;;;1.90;0.20;;;5.30;99.90;;;;;;5073478;28;20041;-76
2024/01/27 05:05:09;;;;;;;2.63;0.20;;;5.40;99.90;;;;;;5084455;28;20044;-76
2024/01/27 05:07:40;;;;;;;2.85;0.30;;;5.40;99.90;;;;;;5071384;28;20045;-77
2024/01/27 05:10:30;;;;;;;1.40;0.38;;;5.30;99.90;;;;;;5070714;28;20052;-76
2024/01/27 05:12:59;;;;;;;0.88;0.20;;;5.30;99.90;;;;;;5076280;28;20059;-84
2024/01/27 05:15:28;;;;;;;3.70;0.70;;;5.30;99.90;;;;;;5069332;28;20044;-81
2024/01/27 05:17:58;;;;;;;1.50;0.30;;;5.20;99.90;;;;;;5069655;28;20036;-81
2024/01/27 05:20:27;;;;;;;2.80;0.60;;;5.20;99.90;;;;;;5074832;28;20131;-82
2024/01/27 05:23:01;;;;;;;5.05;0.82;;;5.20;99.90;;;;;;5065904;28;20048;-81
2024/01/27 05:25:29;;;;;;;3.17;0.60;;;5.20;99.90;;;;;;5080777;28;20116;-82
2024/01/27 05:27:58;;;;;;;2.03;0.20;;;5.20;99.90;;;;;;5076424;28;20056;-82
2024/01/27 05:30:27;;;;;;;4.97;0.57;;;4.40;99.90;;;;;;5081076;28;20088;-83
2024/01/27 05:32:55;;;;;;;1.23;0.13;;;5.10;99.90;;;;;;5083455;28;20454;-85
2024/01/27 05:35:26;;;;;;;2.08;0.20;;;5.00;99.90;;;;;;5085227;28;20049;-80
2024/01/27 05:37:54;;;;;;;3.55;0.40;;;5.00;99.90;;;;;;5091975;28;20060;-80
2024/01/27 05:40:23;;;;;;;4.40;0.40;;;5.10;99.90;;;;;;5096989;28;20108;-81
2024/01/27 05:42:52;;;;;;;2.85;0.20;;;5.40;99.90;;;;;;5085205;28;20054;-81
2024/01/27 05:45:22;;;;;;;5.55;0.60;;;5.10;99.90;;;;;;5084567;28;20083;-80
2024/01/27 05:47:51;;;;;;;2.33;0.43;;;5.10;99.90;;;;;;5086373;28;20041;-81
2024/01/27 05:50:20;;;;;;;2.53;0.40;;;5.50;99.90;;;;;;5081763;28;20049;-80
2024/01/27 05:52:50;;;;;;;2.35;0.30;;;4.90;99.90;;;;;;5112177;28;20084;-79
2024/01/27 05:55:19;;;;;;;3.53;0.28;;;5.00;99.90;;;;;;5079853;28;20450;-81
2024/01/27 05:57:51;;;;;;;1.48;0.30;;;5.00;99.90;;;;;;5080748;28;20070;-79
2024/01/27 06:00:21;;;;;;;3.05;0.40;;;5.30;99.90;;;;;;5109468;28;20051;-81
2024/01/27 06:02:50;;;;;;;5.45;1.38;;;4.90;99.90;;;;;;5084814;28;20052;-79
2024/01/27 06:05:19;;;;;;;3.38;0.50;;;4.90;99.90;;;;;;5078123;28;20135;-80
2024/01/27 06:07:49;;;;;;;3.25;0.30;;;6.00;99.90;;;;;;5081284;28;20127;-80
2024/01/27 06:10:19;;;;;;;2.50;0.10;;;5.00;99.90;;;;;;5075062;28;20044;-78
2024/01/27 06:12:49;;;;;;;4.15;0.70;;;4.90;99.90;;;;;;5093771;28;20048;-77
2024/01/27 06:15:19;;;;;;;4.07;0.35;;;5.00;99.90;;;;;;5083791;28;20040;-83
2024/01/27 06:17:48;;;;;;;7.63;0.30;;;5.00;99.90;;;;;;5077154;28;20037;-80
2024/01/27 06:20:20;;;;;;;5.25;0.45;;;5.60;99.90;;;;;;5084503;28;20041;-79
2024/01/27 06:22:57;;;;;;;1.40;0.20;;;5.20;99.90;;;;;;5080332;28;20688;-76
2024/01/27 06:25:29;;;;;;;2.67;0.60;;;5.10;99.90;;;;;;5110725;28;20102;-78
2024/01/27 06:27:59;;;;;;;3.80;0.28;;;5.00;99.90;;;;;;5076399;28;20631;-81
2024/01/27 06:30:29;;;;;;;3.75;0.20;;;5.00;99.90;;;;;;5101733;28;20116;-79
2024/01/27 06:33:00;;;;;;;4.07;0.30;;;5.10;99.90;;;;;;5075919;28;20028;-80
2024/01/27 06:35:29;;;;;;;2.70;0.20;;;5.10;99.90;;;;;;5090002;28;20409;-79
2024/01/27 06:37:57;;;;;;;7.75;1.38;;;5.10;99.90;;;;;;5089569;28;20057;-83
2024/01/27 06:40:27;;;;;;;2.28;0.30;;;5.00;99.90;;;;;;5076347;28;20051;-80
2024/01/27 06:42:59;;;;;;;4.28;0.28;;;5.00;99.90;;;;;;5078440;28;20519;-78
2024/01/27 06:45:31;;;;;;;3.67;0.43;;;5.00;99.90;;;;;;5070931;28;20048;-76
2024/01/27 06:48:01;;;;;;;4.95;0.35;;;5.10;99.90;;;;;;5073984;28;20053;-79
2024/01/27 06:50:32;;;;;;;5.18;0.55;;;5.00;99.90;;;;;;5067930;28;20048;-77
2024/01/27 06:53:04;;;;;;;3.00;0.30;;;5.00;99.90;;;;;;5073211;28;20033;-78
2024/01/27 06:55:34;;;;;;;2.40;0.50;;;5.80;99.90;;;;;;5070760;28;20045;-78
2024/01/27 06:58:15;;;;;;;4.57;1.85;;;5.10;99.90;;;;;;5072361;28;20499;-77
2024/01/27 07:00:48;;;;;;;;;;;5.10;99.90;;;;;;5078106;28;20051;-78
2024/01/27 07:03:19;;;;;;;5.85;1.02;;;5.20;99.90;;;;;;5103724;28;19930;-78
2024/01/27 07:05:53;;;;;;;1.45;0.20;;;5.20;99.90;;;;;;5073512;28;20036;-77
2024/01/27 07:08:25;;;;;;;3.30;0.73;;;5.20;99.90;;;;;;5072410;28;20072;-80
2024/01/27 07:10:53;;;;;;;2.13;0.40;;;5.70;99.90;;;;;;5074184;28;23578;-80
2024/01/27 07:13:29;;;;;;;4.53;0.70;;;5.30;99.90;;;;;;5104788;28;20072;-78
2024/01/27 07:16:03;;;;;;;3.45;0.40;;;5.30;99.90;;;;;;5089965;28;20040;-78
2024/01/27 07:18:39;;;;;;;2.80;0.50;;;5.40;99.90;;;;;;5070919;28;20033;-79
2024/01/27 07:21:08;;;;;;;2.03;0.20;;;5.80;99.90;;;;;;5072881;28;20060;-78
2024/01/27 07:23:39;;;;;;;2.47;0.70;;;5.40;99.90;;;;;;5072215;28;20507;-76
2024/01/27 07:26:10;;;;;;;10.52;0.45;;;5.40;99.90;;;;;;5078492;28;20024;-77
2024/01/27 07:28:40;;;;;;;2.30;0.20;;;5.50;99.90;;;;;;5075661;28;20072;-77
2024/01/27 07:31:09;;;;;;;3.78;0.38;;;5.50;99.90;;;;;;5071883;28;20071;-76
2024/01/27 07:33:41;;;;;;;5.43;0.20;;;5.50;99.60;;;;;;5066433;28;20045;-76
2024/01/27 07:36:11;;;;;;;3.60;0.13;;;5.60;98.60;;;;;;5072991;28;20467;-78
2024/01/27 07:38:40;;;;;;;2.88;0.68;;;5.70;98.40;;;;;;5074254;28;20049;-77
2024/01/27 07:41:09;;;;;;;2.60;0.43;;;5.70;98.70;;;;;;5071031;28;20044;-79
2024/01/27 07:43:45;;;;;;;3.58;0.28;;;5.70;98.20;;;;;;5085356;28;20410;-79
2024/01/27 07:46:16;;;;;;;3.28;0.50;;;5.80;97.80;;;;;;5074158;28;20048;-78
2024/01/27 07:48:45;;;;;;;4.28;1.42;;;5.90;97.80;;;;;;5075499;28;20060;-77
2024/01/27 07:51:20;;;;;;;5.15;0.40;;;5.80;98.30;;;;;;5072989;28;20436;-79
2024/01/27 07:53:54;;;;;;;4.72;0.55;;;6.00;97.40;;;;;;5085759;28;20067;-77
2024/01/27 07:56:24;;;;;;;4.70;0.40;;;6.00;97.20;;;;;;5076144;28;20049;-77
2024/01/27 07:58:57;;;;;;;2.85;0.30;;;6.10;97.00;;;;;;5078834;28;20112;-79
2024/01/27 08:01:27;;;;;;;3.85;0.68;;;6.10;96.80;;;;;;5107839;27;20052;-78
2024/01/27 08:03:55;;;;;;;4.85;0.50;;;7.10;97.10;;;;;;5042853;28;20041;-77
2024/01/27 08:06:29;;;;;;;3.78;0.50;;;6.20;96.80;;;;;;5073643;28;20055;-78
2024/01/27 08:08:58;;;;;;;3.20;0.50;;;6.20;97.30;;;;;;5071727;28;20029;-79
2024/01/27 08:11:30;;;;;;;3.53;0.65;;;6.20;97.30;;;;;;5077181;28;20054;-78
2024/01/27 08:14:03;;;;;;;3.28;0.35;;;6.20;98.00;;;;;;5080349;28;20045;-79
2024/01/27 08:16:32;;;;;;;4.28;0.25;;;6.20;98.80;;;;;;5072278;28;20048;-78
2024/01/27 08:19:01;;;;;;;1.88;0.30;;;6.20;99.00;;;;;;5073418;28;20040;-78
2024/01/27 08:21:34;;;;;;;4.47;0.40;;;6.20;99.40;;;;;;5070240;28;20045;-80
2024/01/27 08:24:08;;;;;;;3.72;0.30;;;6.20;99.90;;;;;;5070843;28;20048;-75
2024/01/27 08:26:48;;;;;;;1.95;0.50;;;6.30;99.90;;;;;;5069714;28;20049;-82
2024/01/27 08:29:23;;;;;;;3.35;0.22;;;6.30;99.90;;;;;;5067855;28;20037;-75
2024/01/27 08:31:53;;;;;;;1.92;0.20;;;6.30;99.90;;;;;;5055218;28;20087;-76
2024/01/27 08:34:30;;;;;;;1.10;0.40;;;6.30;99.90;;;;;;5084942;28;20170;-78
2024/01/27 08:37:02;;;;;;;1.70;0.20;;;6.40;99.90;;;;;;5072707;28;20049;-76
2024/01/27 08:39:33;;;;;;;2.25;0.38;;;6.40;99.90;;;;;;5085290;28;20058;-79
2024/01/27 08:42:04;;;;;;;1.88;1.00;;;6.40;99.90;;;;;;5073863;28;20116;-81
2024/01/27 08:44:41;;;;;;;1.83;0.20;;;6.40;99.90;;;;;;5085275;28;20063;-80
2024/01/27 08:47:09;;;;;;;5.25;0.28;;;6.40;99.90;;;;;;5081903;28;20043;-80
2024/01/27 08:49:38;;;;;;;1.77;0.20;;;6.40;99.90;;;;;;5083587;28;20047;-83
2024/01/27 08:52:08;;;;;;;1.52;0.30;;;6.40;99.90;;;;;;5068389;28;20068;-79
2024/01/27 08:54:38;;;;;;;3.15;0.40;;;6.40;99.90;;;;;;5077895;28;20059;-83
2024/01/27 08:57:07;;;;;;;1.10;0.20;;;6.50;99.90;;;;;;5096509;28;20045;-81
2024/01/27 08:59:36;;;;;;;4.68;0.30;;;6.80;99.90;;;;;;5082661;28;20052;-81
2024/01/27 09:02:06;;;;;;;4.38;0.32;;;6.50;99.90;;;;;;5081363;28;20080;-81
2024/01/27 09:04:35;;;;;;;1.77;0.50;;;6.50;99.90;;;;;;5083915;28;20041;-79
2024/01/27 09:07:04;;;;;;;4.03;0.35;;;6.60;99.90;;;;;;5081172;28;20119;-80
2024/01/27 09:09:34;;;;;;;2.72;0.28;;;6.50;99.90;;;;;;5087700;28;20028;-81
2024/01/27 09:12:04;;;;;;;5.35;0.73;;;7.40;99.90;;;;;;5101342;28;20041;-81
2024/01/27 09:14:33;;;;;;;1.60;0.35;;;6.50;99.90;;;;;;5087811;28;20055;-78
2024/01/27 09:17:09;;;;;;;2.60;0.30;;;6.60;99.90;;;;;;5078566;28;20021;-83
2024/01/27 09:19:38;;;;;;;5.85;1.95;;;6.60;99.90;;;;;;5081418;28;20044;-81
2024/01/27 09:22:28;;;;;;;2.35;0.40;;;6.70;99.90;;;;;;5079991;28;20040;-84
2024/01/27 09:24:57;;;;;;;1.85;0.40;;;6.70;99.90;;;;;;5117392;28;20490;-80
2024/01/27 09:27:26;;;;;;;3.85;0.40;;;6.70;99.90;;;;;;5080821;28;20084;-80
2024/01/27 09:29:55;;;;;;;2.38;0.43;;;6.70;99.90;;;;;;5083461;28;20020;-81
2024/01/27 09:32:25;;;;;;;1.27;0.13;;;5.40;99.90;;;;;;5094289;28;20071;-80
2024/01/27 09:35:01;;;;;;;2.35;0.32;;;6.80;99.90;;;;;;5081065;28;20037;-81
2024/01/27 09:37:31;;;;;;;2.33;0.30;;;6.70;99.30;;;;;;5083494;28;20045;-84
2024/01/27 09:40:02;;;;;;;1.80;0.30;;;6.70;99.70;;;;;;5069334;28;20066;-83
2024/01/27 09:42:35;;;;;;;4.05;0.50;;;6.90;99.70;;;;;;5085865;28;20075;-81
2024/01/27 09:45:05;;;;;;;6.75;0.70;;;6.80;99.50;;;;;;5079018;28;20044;-80
2024/01/27 09:47:38;;;;;;;3.22;0.60;;;6.90;99.30;;;;;;5109506;28;20053;-81
2024/01/27 09:50:11;;;;;;;;;;;6.90;99.60;;;;;;5099820;28;20037;-79
2024/01/27 09:52:55;;;;;;;4.40;0.68;;;6.20;98.30;;;;;;5081497;28;19925;-78
2024/01/27 09:55:26;;;;;;;5.20;1.33;;;6.80;98.80;;;;;;5082549;28;20036;-83
2024/01/27 09:57:55;;;;;;;3.25;1.15;;;6.80;99.60;;;;;;5117173;27;20051;-82
2024/01/27 10:00:25;;;;;;;3.30;0.30;;;6.90;99.40;;;;;;5076772;28;20041;-80
2024/01/27 10:02:58;;;;;;;10.35;1.63;;;6.80;99.30;;;;;;5087395;28;20475;-78
2024/01/27 10:05:28;;;;;;;7.18;2.25;;;6.90;99.20;;;;;;5085952;28;20367;-81
2024/01/27 10:08:09;;;;;;;4.20;0.90;;;7.00;99.20;;;;;;5076860;28;20095;-82
2024/01/27 10:10:43;;;;;;;3.25;0.55;;;6.90;99.10;;;;;;5067775;28;20404;-76
2024/01/27 10:13:31;;;;;;;6.57;0.93;;;6.90;98.90;;;;;;5070210;28;20049;-80
2024/01/27 10:16:29;;;;;;;57.97;19.20;;;7.10;98.90;;;;;;5082520;28;20049;-80
2024/01/27 10:19:04;;;;;;;3.78;1.30;;;7.20;99.20;;;;;;5074396;28;20049;-78
2024/01/27 10:21:36;;;;;;;3.03;0.40;;;7.20;98.40;;;;;;5079684;28;20044;-77
2024/01/27 10:24:13;;;;;;;5.22;1.25;;;7.10;97.60;;;;;;5060345;28;20056;-77
2024/01/27 10:26:42;;;;;;;3.65;1.13;;;7.10;97.20;;;;;;5088900;28;20044;-78
2024/01/27 10:29:15;;;;;;;6.35;2.28;;;7.00;97.30;;;;;;5054001;28;20044;-81
2024/01/27 10:31:45;;;;;;;6.22;1.02;;;7.00;97.20;;;;;;5086271;28;20063;-77
2024/01/27 10:34:25;;;;;;;4.15;0.57;;;7.00;97.40;;;;;;5075547;28;20041;-79
2024/01/27 10:37:05;;;;;;;5.85;1.08;;;7.20;97.00;;;;;;5072757;28;20044;-79
2024/01/27 10:39:34;;;;;;;2.97;0.47;;;7.30;97.40;;;;;;5072758;28;20048;-78
2024/01/27 10:42:07;;;;;;;5.15;0.80;;;7.20;96.30;;;;;;5083067;28;20075;-78
2024/01/27 10:44:42;;;;;;;6.03;1.20;;;7.30;96.30;;;;;;5106607;28;20040;-80
2024/01/27 10:47:23;;;;;;;2.60;0.30;;;8.30;95.50;;;;;;5080216;28;20112;-80
2024/01/27 10:49:58;;;;;;;8.85;2.42;;;7.30;94.60;;;;;;5074481;28;20063;-78
2024/01/27 10:52:29;;;;;;;6.75;0.65;;;7.40;94.90;;;;;;5073754;28;20051;-77
2024/01/27 10:55:07;;;;;;;4.20;0.63;;;7.30;94.80;;;;;;5087437;28;20067;-78
2024/01/27 10:57:38;;;;;;;5.43;1.02;;;7.40;94.90;;;;;;5071736;28;20066;-77
2024/01/27 11:03:00;;;;;;;4.65;0.70;;;7.70;94.50;;;;;;5082016;28;20068;-79
2024/01/27 11:05:36;;;;;;;3.55;0.50;;;7.60;93.60;;;;;;5061684;28;20848;-77
2024/01/27 11:08:14;;;;;;;3.20;0.60;;;7.60;93.60;;;;;;5080945;28;20070;-78
2024/01/27 11:10:45;;;;;;;6.15;0.80;;;7.60;93.00;;;;;;5095959;28;20048;-78
2024/01/27 11:13:30;;;;;;;3.38;0.93;;;7.70;93.40;;;;;;5078218;28;20395;-78
2024/01/27 11:16:18;;;;;;;3.42;0.57;;;7.90;93.20;;;;;;5083241;28;20040;-80
2024/01/27 11:18:52;;;;;;;4.60;0.73;;;7.80;93.30;;;;;;5104102;28;20063;-77
2024/01/27 11:21:31;;;;;;;11.45;1.52;;;8.00;93.30;;;;;;5071040;28;20052;-79
2024/01/27 11:23:59;;;;;;;2.25;0.40;;;7.90;92.60;;;;;;5080153;28;20040;-79
2024/01/27 11:26:35;;;;;;;6.80;0.80;;;7.80;92.50;;;;;;5068717;28;20063;-78
2024/01/27 11:29:09;;;;;;;5.03;0.70;;;7.90;92.70;;;;;;5069776;28;20076;-81
2024/01/27 11:31:41;;;;;;;5.32;0.40;;;7.80;92.20;;;;;;5074845;28;20139;-79
2024/01/27 11:34:12;;;;;;;5.47;0.88;;;7.70;92.60;;;;;;5085271;28;20049;-77
2024/01/27 11:37:16;;;;;;;4.07;0.60;;;7.60;92.20;;;;;;5027103;28;20045;-79
2024/01/27 11:39:47;;;;;;;6.63;1.42;;;7.40;92.60;;;;;;5032270;28;20053;-78
2024/01/27 11:42:22;;;;;;;11.32;1.95;;;7.40;92.80;;;;;;5047662;28;20049;-78
2024/01/27 11:44:50;;;;;;;5.68;0.60;;;7.60;92.50;;;;;;5043685;28;20053;-78
2024/01/27 11:47:19;;;;;;;5.28;0.60;;;7.60;92.10;;;;;;5027262;28;20052;-78
2024/01/27 11:49:54;;;;;;;4.22;0.95;;;7.40;91.80;;;;;;5031085;28;20064;-76
2024/01/27 11:52:25;;;;;;;3.10;0.98;;;7.20;92.30;;;;;;5041815;28;20085;-77
2024/01/27 11:54:58;;;;;;;3.75;0.40;;;7.10;92.80;;;;;;5053616;28;20094;-79
2024/01/27 11:57:29;;;;;;;5.82;0.65;;;7.10;92.80;;;;;;5045783;28;20044;-77
2024/01/27 12:00:01;;;;;;;5.05;0.60;;;7.20;92.90;;;;;;5067897;28;20041;-79
2024/01/27 12:02:38;;;;;;;4.05;1.38;;;7.20;92.10;;;;;;5070298;28;20049;-77
2024/01/27 12:05:12;;;;;;;2.58;0.55;;;7.40;92.10;;;;;;5069649;28;20080;-78
2024/01/27 12:07:43;;;;;;;6.32;0.47;;;7.40;91.90;;;;;;5083591;28;20068;-78
2024/01/27 12:10:12;;;;;;;3.78;0.50;;;7.40;91.50;;;;;;5068648;28;20041;-77
2024/01/27 12:12:40;;;;;;;3.67;1.10;;;6.60;91.40;;;;;;5069276;28;20102;-78
2024/01/27 12:15:10;;;;;;;3.78;0.60;;;7.50;91.80;;;;;;5071431;28;20513;-77
2024/01/27 12:17:41;;;;;;;4.25;0.60;;;7.70;91.80;;;;;;5086913;28;20047;-80
2024/01/27 12:20:19;;;;;;;3.33;0.40;;;7.60;91.60;;;;;;5066354;28;20557;-78
2024/01/27 12:22:50;;;;;;;2.95;1.00;;;7.60;91.20;;;;;;5073453;28;20117;-78
2024/01/27 12:25:24;;;;;;;3.00;0.55;;;7.70;91.40;;;;;;5067863;28;20090;-80
2024/01/27 12:27:54;;;;;;;5.25;0.90;;;7.80;91.70;;;;;;5076479;28;20044;-77
2024/01/27 12:30:30;;;;;;;4.95;0.80;;;7.90;90.70;;;;;;5069297;28;20090;-78
2024/01/27 12:32:59;;;;;;;7.22;0.85;;;7.60;90.40;;;;;;5068043;28;20041;-79
2024/01/27 12:35:32;;;;;;;4.10;1.10;;;7.40;90.80;;;;;;5074246;28;20045;-77
2024/01/27 12:38:08;;;;;;;4.35;0.68;;;7.80;91.20;;;;;;5066999;28;20056;-78
2024/01/27 12:40:39;;;;;;;4.97;0.70;;;7.50;90.90;;;;;;5068790;28;20060;-79
2024/01/27 12:43:09;;;;;;;5.60;1.13;;;7.40;91.50;;;;;;5073980;28;20044;-76
2024/01/27 12:45:38;;;;;;;5.20;0.88;;;7.30;91.40;;;;;;5070947;28;20048;-76
2024/01/27 12:48:07;;;;;;;7.65;1.55;;;7.30;91.70;;;;;;5068132;28;20071;-78
2024/01/27 12:50:36;;;;;;;3.72;0.85;;;7.10;91.70;;;;;;5070601;28;20415;-79
2024/01/27 12:53:17;;;;;;;4.57;0.60;;;7.30;92.10;;;;;;5063249;28;20041;-77
2024/01/27 12:56:06;;;;;;;2.78;0.50;;;7.20;91.80;;;;;;5038099;28;20063;-80
2024/01/27 13:01:17;;;;;;;;;;;7.20;91.90;;;;;;5043444;28;20056;-78
2024/01/27 13:03:46;;;;;;;6.22;1.20;;;7.10;92.10;;;;;;5024260;28;19924;-80
2024/01/27 13:06:16;;;;;;;4.70;0.90;;;7.10;92.60;;;;;;5025706;28;20033;-79
2024/01/27 13:08:46;;;;;;;8.85;1.30;;;7.00;92.40;;;;;;5024796;28;20057;-79
2024/01/27 13:11:19;;;;;;;4.57;1.63;;;6.90;92.70;;;;;;5022102;28;20064;-78
2024/01/27 13:13:48;;;;;;;7.28;1.17;;;6.90;92.80;;;;;;5036966;28;20092;-80
2024/01/27 13:16:23;;;;;;;1.92;0.70;;;6.10;92.80;;;;;;5059656;28;20044;-80
2024/01/27 13:18:53;;;;;;;6.85;1.85;;;7.00;92.90;;;;;;5063780;28;20122;-77
2024/01/27 13:21:22;;;;;;;4.82;0.82;;;7.00;92.70;;;;;;5076493;28;20499;-78
2024/01/27 13:23:53;;;;;;;6.28;0.60;;;7.00;93.10;;;;;;5084564;28;20059;-81
2024/01/27 13:26:21;;;;;;;5.28;0.75;;;6.90;93.00;;;;;;5085783;28;20053;-81
2024/01/27 13:28:53;;;;;;;7.72;0.95;;;6.80;92.90;;;;;;5098144;28;20056;-81
2024/01/27 13:31:23;;;;;;;7.90;0.80;;;6.80;93.30;;;;;;5098027;28;20041;-79